sensor_id;sensor_type;location;lat;lon;timestamp;pressure;altitude;pressure_sealevel;temperature;humidity
39613;BME280;25303;48.896;13.342;2022-08-25T00:01:08;93180.91;;;17.26;72.74
39613;BME280;25303;48.896;13.342;2022-08-25T00:03:52;93177.72;;;17.30;72.52
39613;BME280;25303;48.896;13.342;2022-08-25T00:06:38;93177.72;;;17.30;72.58
39613;BME280;25303;48.896;13.342;2022-08-25T00:09:23;93178.56;;;17.31;72.67
39613;BME280;25303;48.896;13.342;2022-08-25T00:12:07;93172.34;;;17.32;72.86
39613;BME280;25303;48.896;13.342;2022-08-25T00:14:50;93165.16;;;17.34;72.82
39613;BME280;25303;48.896;13.342;2022-08-25T00:17:35;93171.00;;;17.36;72.70
39613;BME280;25303;48.896;13.342;2022-08-25T00:20:18;93176.19;;;17.36;72.95
39613;BME280;25303;48.896;13.342;2022-08-25T00:23:01;93175.22;;;17.37;72.70
39613;BME280;25303;48.896;13.342;2022-08-25T00:25:48;93181.19;;;17.38;72.94
39613;BME280;25303;48.896;13.342;2022-08-25T00:28:31;93176.19;;;17.36;72.98
39613;BME280;25303;48.896;13.342;2022-08-25T00:31:17;93176.38;;;17.35;73.06
39613;BME280;25303;48.896;13.342;2022-08-25T00:34:03;93174.75;;;17.34;73.00
39613;BME280;25303;48.896;13.342;2022-08-25T00:36:48;93180.16;;;17.32;73.19
39613;BME280;25303;48.896;13.342;2022-08-25T00:39:32;93181.94;;;17.31;72.98
39613;BME280;25303;48.896;13.342;2022-08-25T00:42:15;93179.34;;;17.31;72.79
39613;BME280;25303;48.896;13.342;2022-08-25T00:45:01;93169.94;;;17.30;73.23
39613;BME280;25303;48.896;13.342;2022-08-25T00:47:44;93172.34;;;17.32;73.01
39613;BME280;25303;48.896;13.342;2022-08-25T00:50:31;93173.53;;;17.29;73.26
39613;BME280;25303;48.896;13.342;2022-08-25T00:53:15;93164.31;;;17.27;73.61
39613;BME280;25303;48.896;13.342;2022-08-25T00:56:00;93169.88;;;17.24;73.27
39613;BME280;25303;48.896;13.342;2022-08-25T00:58:43;93170.28;;;17.21;73.77
39613;BME280;25303;48.896;13.342;2022-08-25T01:01:26;93176.84;;;17.16;73.99
39613;BME280;25303;48.896;13.342;2022-08-25T01:04:11;93171.19;;;17.13;73.66
39613;BME280;25303;48.896;13.342;2022-08-25T01:06:57;93171.59;;;17.10;74.24
39613;BME280;25303;48.896;13.342;2022-08-25T01:09:41;93165.16;;;17.06;74.10
39613;BME280;25303;48.896;13.342;2022-08-25T01:12:25;93157.72;;;17.03;74.16
39613;BME280;25303;48.896;13.342;2022-08-25T01:15:11;93153.88;;;16.98;74.30
39613;BME280;25303;48.896;13.342;2022-08-25T01:17:56;93161.28;;;16.95;74.48
39613;BME280;25303;48.896;13.342;2022-08-25T01:20:40;93160.81;;;16.91;74.53
39613;BME280;25303;48.896;13.342;2022-08-25T01:23:25;93166.38;;;16.88;74.76
39613;BME280;25303;48.896;13.342;2022-08-25T01:26:09;93163.38;;;16.84;75.04
39613;BME280;25303;48.896;13.342;2022-08-25T01:28:53;93162.53;;;16.84;75.02
39613;BME280;25303;48.896;13.342;2022-08-25T01:31:55;93166.13;;;16.83;75.37
39613;BME280;25303;48.896;13.342;2022-08-25T01:34:41;93161.31;;;16.80;75.49
39613;BME280;25303;48.896;13.342;2022-08-25T01:37:24;93160.50;;;16.79;75.35
39613;BME280;25303;48.896;13.342;2022-08-25T01:40:10;93162.53;;;16.84;75.65
39613;BME280;25303;48.896;13.342;2022-08-25T01:43:02;93153.59;;;16.86;75.44
39613;BME280;25303;48.896;13.342;2022-08-25T01:45:48;93160.19;;;16.89;75.51
39613;BME280;25303;48.896;13.342;2022-08-25T01:48:31;93152.03;;;16.92;75.61
39613;BME280;25303;48.896;13.342;2022-08-25T01:51:15;93156.25;;;16.93;75.55
39613;BME280;25303;48.896;13.342;2022-08-25T01:54:00;93156.88;;;16.95;75.44
39613;BME280;25303;48.896;13.342;2022-08-25T01:56:45;93159.28;;;16.97;75.60
39613;BME280;25303;48.896;13.342;2022-08-25T01:59:28;93159.28;;;16.97;75.57
39613;BME280;25303;48.896;13.342;2022-08-25T02:02:11;93148.06;;;16.96;75.24
39613;BME280;25303;48.896;13.342;2022-08-25T02:04:54;93150.88;;;16.95;75.35
39613;BME280;25303;48.896;13.342;2022-08-25T02:07:37;93147.44;;;16.94;75.47
39613;BME280;25303;48.896;13.342;2022-08-25T02:10:21;93148.06;;;16.96;75.77
39613;BME280;25303;48.896;13.342;2022-08-25T02:13:06;93140.63;;;16.93;75.68
39613;BME280;25303;48.896;13.342;2022-08-25T02:15:53;93140.38;;;16.88;76.22
39613;BME280;25303;48.896;13.342;2022-08-25T02:18:37;93132.97;;;16.85;76.53
39613;BME280;25303;48.896;13.342;2022-08-25T02:21:20;93135.38;;;16.86;76.49
39613;BME280;25303;48.896;13.342;2022-08-25T02:24:04;93132.78;;;16.86;76.87
39613;BME280;25303;48.896;13.342;2022-08-25T02:26:48;93137.59;;;16.90;76.76
39613;BME280;25303;48.896;13.342;2022-08-25T02:29:32;93125.19;;;16.92;76.62
39613;BME280;25303;48.896;13.342;2022-08-25T02:32:15;93127.25;;;16.96;76.53
39613;BME280;25303;48.896;13.342;2022-08-25T02:34:59;93128.50;;;17.00;76.80
39613;BME280;25303;48.896;13.342;2022-08-25T02:37:42;93127.13;;;17.05;76.52
39613;BME280;25303;48.896;13.342;2022-08-25T02:40:25;93123.16;;;17.09;76.44
39613;BME280;25303;48.896;13.342;2022-08-25T02:43:09;93115.78;;;17.12;76.46
39613;BME280;25303;48.896;13.342;2022-08-25T02:45:53;93113.59;;;17.16;76.80
39613;BME280;25303;48.896;13.342;2022-08-25T02:48:38;93111.25;;;17.21;76.84
39613;BME280;25303;48.896;13.342;2022-08-25T02:51:23;93109.66;;;17.27;76.34
39613;BME280;25303;48.896;13.342;2022-08-25T02:54:06;93108.09;;;17.33;76.55
39613;BME280;25303;48.896;13.342;2022-08-25T02:56:50;93111.56;;;17.40;76.73
39613;BME280;25303;48.896;13.342;2022-08-25T02:59:33;93103.41;;;17.50;75.98
39613;BME280;25303;48.896;13.342;2022-08-25T03:02:18;93106.41;;;17.53;76.15
39613;BME280;25303;48.896;13.342;2022-08-25T03:05:01;93098.41;;;17.55;76.02
39613;BME280;25303;48.896;13.342;2022-08-25T03:07:44;93102.03;;;17.54;75.97
39613;BME280;25303;48.896;13.342;2022-08-25T03:10:28;93098.00;;;17.51;75.90
39613;BME280;25303;48.896;13.342;2022-08-25T03:13:11;93107.59;;;17.51;75.52
39613;BME280;25303;48.896;13.342;2022-08-25T03:15:54;93099.19;;;17.49;75.61
39613;BME280;25303;48.896;13.342;2022-08-25T03:18:40;93097.56;;;17.48;75.50
39613;BME280;25303;48.896;13.342;2022-08-25T03:21:23;93102.38;;;17.44;75.41
39613;BME280;25303;48.896;13.342;2022-08-25T03:24:07;93098.72;;;17.38;75.57
39613;BME280;25303;48.896;13.342;2022-08-25T03:26:50;93104.50;;;17.34;75.36
39613;BME280;25303;48.896;13.342;2022-08-25T03:29:36;93102.28;;;17.30;75.31
39613;BME280;25303;48.896;13.342;2022-08-25T03:32:21;93099.88;;;17.29;75.33
39613;BME280;25303;48.896;13.342;2022-08-25T03:35:06;93102.69;;;17.27;75.12
39613;BME280;25303;48.896;13.342;2022-08-25T03:37:52;93102.06;;;17.25;75.11
39613;BME280;25303;48.896;13.342;2022-08-25T03:40:36;93098.84;;;17.23;75.23
39613;BME280;25303;48.896;13.342;2022-08-25T03:43:20;93101.81;;;17.20;75.48
39613;BME280;25303;48.896;13.342;2022-08-25T03:46:04;93095.59;;;17.14;75.49
39613;BME280;25303;48.896;13.342;2022-08-25T03:48:48;93095.34;;;17.09;75.27
39613;BME280;25303;48.896;13.342;2022-08-25T03:51:34;93093.31;;;17.05;75.72
39613;BME280;25303;48.896;13.342;2022-08-25T03:54:21;93090.47;;;16.99;75.58
39613;BME280;25303;48.896;13.342;2022-08-25T03:57:04;93084.06;;;16.95;75.98
39613;BME280;25303;48.896;13.342;2022-08-25T03:59:47;93099.19;;;16.92;75.66
39613;BME280;25303;48.896;13.342;2022-08-25T04:02:30;93095.41;;;16.88;76.12
39613;BME280;25303;48.896;13.342;2022-08-25T04:05:14;93095.56;;;16.86;76.28
39613;BME280;25303;48.896;13.342;2022-08-25T04:07:59;93087.50;;;16.81;75.90
39613;BME280;25303;48.896;13.342;2022-08-25T04:10:43;93093.28;;;16.76;76.53
39613;BME280;25303;48.896;13.342;2022-08-25T04:13:26;93101.66;;;16.71;76.40
39613;BME280;25303;48.896;13.342;2022-08-25T04:16:11;93102.66;;;16.70;76.61
39613;BME280;25303;48.896;13.342;2022-08-25T04:18:55;93096.81;;;16.68;76.69
39613;BME280;25303;48.896;13.342;2022-08-25T04:21:39;93099.00;;;16.65;76.33
39613;BME280;25303;48.896;13.342;2022-08-25T04:24:24;93095.00;;;16.62;76.79
39613;BME280;25303;48.896;13.342;2022-08-25T04:27:07;93107.78;;;16.64;76.67
39613;BME280;25303;48.896;13.342;2022-08-25T04:29:50;93105.00;;;16.65;76.70
39613;BME280;25303;48.896;13.342;2022-08-25T04:32:34;93104.47;;;16.70;77.14
39613;BME280;25303;48.896;13.342;2022-08-25T04:35:17;93105.25;;;16.70;77.08
39613;BME280;25303;48.896;13.342;2022-08-25T04:38:02;93109.47;;;16.71;77.25
39613;BME280;25303;48.896;13.342;2022-08-25T04:40:54;93106.66;;;16.73;77.25
39613;BME280;25303;48.896;13.342;2022-08-25T04:43:39;93108.88;;;16.76;77.27
39613;BME280;25303;48.896;13.342;2022-08-25T04:46:25;93111.13;;;16.79;77.34
39613;BME280;25303;48.896;13.342;2022-08-25T04:49:08;93116.75;;;16.83;77.29
39613;BME280;25303;48.896;13.342;2022-08-25T04:51:51;93115.38;;;16.87;77.03
39613;BME280;25303;48.896;13.342;2022-08-25T04:54:35;93112.19;;;16.92;76.88
39613;BME280;25303;48.896;13.342;2022-08-25T04:57:19;93110.66;;;16.97;77.07
39613;BME280;25303;48.896;13.342;2022-08-25T05:00:03;93108.50;;;17.01;77.11
39613;BME280;25303;48.896;13.342;2022-08-25T05:02:46;93111.72;;;17.03;76.84
39613;BME280;25303;48.896;13.342;2022-08-25T05:05:30;93115.75;;;17.06;76.77
39613;BME280;25303;48.896;13.342;2022-08-25T05:08:14;93104.97;;;17.09;78.07
39613;BME280;25303;48.896;13.342;2022-08-25T05:10:57;93109.38;;;17.15;78.04
39613;BME280;25303;48.896;13.342;2022-08-25T05:13:47;93098.44;;;17.20;77.55
39613;BME280;25303;48.896;13.342;2022-08-25T05:16:32;93103.84;;;17.25;77.26
39613;BME280;25303;48.896;13.342;2022-08-25T05:19:15;93101.69;;;17.28;77.62
39613;BME280;25303;48.896;13.342;2022-08-25T05:21:59;93100.50;;;17.31;77.58
39613;BME280;25303;48.896;13.342;2022-08-25T05:24:42;93106.72;;;17.37;77.34
39613;BME280;25303;48.896;13.342;2022-08-25T05:27:25;93111.56;;;17.40;77.27
39613;BME280;25303;48.896;13.342;2022-08-25T05:30:10;93109.34;;;17.43;77.84
39613;BME280;25303;48.896;13.342;2022-08-25T05:32:54;93112.19;;;17.49;77.76
39613;BME280;25303;48.896;13.342;2022-08-25T05:35:38;93113.44;;;17.53;78.45
39613;BME280;25303;48.896;13.342;2022-08-25T05:38:22;93110.25;;;17.57;78.03
39613;BME280;25303;48.896;13.342;2022-08-25T05:41:07;93109.66;;;17.62;78.33
39613;BME280;25303;48.896;13.342;2022-08-25T05:43:51;93109.88;;;17.67;78.55
39613;BME280;25303;48.896;13.342;2022-08-25T05:46:35;93095.28;;;17.73;78.01
39613;BME280;25303;48.896;13.342;2022-08-25T05:49:18;93097.72;;;17.81;78.13
39613;BME280;25303;48.896;13.342;2022-08-25T05:52:02;93093.72;;;17.85;78.20
39613;BME280;25303;48.896;13.342;2022-08-25T05:54:45;93097.97;;;17.93;77.29
39613;BME280;25303;48.896;13.342;2022-08-25T05:57:28;93100.97;;;17.97;77.55
39613;BME280;25303;48.896;13.342;2022-08-25T06:00:12;93095.59;;;17.98;77.31
39613;BME280;25303;48.896;13.342;2022-08-25T06:02:57;93092.78;;;18.00;77.24
39613;BME280;25303;48.896;13.342;2022-08-25T06:05:39;93102.81;;;18.03;77.43
39613;BME280;25303;48.896;13.342;2022-08-25T06:08:22;93101.25;;;18.09;77.43
39613;BME280;25303;48.896;13.342;2022-08-25T06:11:07;93099.47;;;18.16;77.21
39613;BME280;25303;48.896;13.342;2022-08-25T06:13:50;93099.66;;;18.21;77.47
39613;BME280;25303;48.896;13.342;2022-08-25T06:16:33;93095.69;;;18.32;77.05
39613;BME280;25303;48.896;13.342;2022-08-25T06:19:18;93097.09;;;18.41;76.70
39613;BME280;25303;48.896;13.342;2022-08-25T06:22:02;93101.13;;;18.50;76.68
39613;BME280;25303;48.896;13.342;2022-08-25T06:24:45;93105.56;;;18.57;75.70
39613;BME280;25303;48.896;13.342;2022-08-25T06:27:28;93107.16;;;18.64;75.21
39613;BME280;25303;48.896;13.342;2022-08-25T06:30:15;93103.56;;;18.72;75.42
39613;BME280;25303;48.896;13.342;2022-08-25T06:33:05;93111.16;;;18.80;75.01
39613;BME280;25303;48.896;13.342;2022-08-25T06:35:52;93103.16;;;18.89;75.01
39613;BME280;25303;48.896;13.342;2022-08-25T06:38:35;93106.56;;;18.96;74.56
39613;BME280;25303;48.896;13.342;2022-08-25T06:41:19;93109.19;;;19.03;74.16
39613;BME280;25303;48.896;13.342;2022-08-25T06:44:02;93109.78;;;19.05;74.06
39613;BME280;25303;48.896;13.342;2022-08-25T06:46:46;93111.38;;;19.12;74.22
39613;BME280;25303;48.896;13.342;2022-08-25T06:49:29;93108.97;;;19.18;73.54
39613;BME280;25303;48.896;13.342;2022-08-25T06:52:18;93114.19;;;19.24;73.88
39613;BME280;25303;48.896;13.342;2022-08-25T06:55:03;93102.94;;;19.31;73.86
39613;BME280;25303;48.896;13.342;2022-08-25T06:57:47;93108.94;;;19.38;73.77
39613;BME280;25303;48.896;13.342;2022-08-25T07:00:30;93108.50;;;19.48;73.94
39613;BME280;25303;48.896;13.342;2022-08-25T07:03:14;93104.28;;;19.60;73.44
39613;BME280;25303;48.896;13.342;2022-08-25T07:05:57;93109.84;;;19.70;72.47
39613;BME280;25303;48.896;13.342;2022-08-25T07:08:41;93104.78;;;19.82;72.07
39613;BME280;25303;48.896;13.342;2022-08-25T07:11:24;93102.16;;;19.96;71.81
39613;BME280;25303;48.896;13.342;2022-08-25T07:14:10;93103.13;;;20.01;71.77
39613;BME280;25303;48.896;13.342;2022-08-25T07:16:53;93105.34;;;20.04;70.85
39613;BME280;25303;48.896;13.342;2022-08-25T07:19:36;93107.53;;;20.08;70.35
39613;BME280;25303;48.896;13.342;2022-08-25T07:22:21;93095.47;;;20.07;69.98
39613;BME280;25303;48.896;13.342;2022-08-25T07:25:07;93094.47;;;20.08;69.44
39613;BME280;25303;48.896;13.342;2022-08-25T07:27:51;93084.56;;;20.16;69.56
39613;BME280;25303;48.896;13.342;2022-08-25T07:30:39;93094.34;;;20.28;69.32
39613;BME280;25303;48.896;13.342;2022-08-25T07:33:23;93090.28;;;20.39;68.69
39613;BME280;25303;48.896;13.342;2022-08-25T07:36:07;93087.38;;;20.47;68.31
39613;BME280;25303;48.896;13.342;2022-08-25T07:38:50;93091.59;;;20.48;67.92
39613;BME280;25303;48.896;13.342;2022-08-25T07:41:38;93086.19;;;20.49;68.45
39613;BME280;25303;48.896;13.342;2022-08-25T07:44:22;93086.72;;;20.58;67.86
39613;BME280;25303;48.896;13.342;2022-08-25T07:47:08;93088.66;;;20.70;67.69
39613;BME280;25303;48.896;13.342;2022-08-25T07:49:51;93086.19;;;20.82;67.32
39613;BME280;25303;48.896;13.342;2022-08-25T07:52:35;93084.81;;;20.98;67.79
39613;BME280;25303;48.896;13.342;2022-08-25T07:55:19;93092.13;;;21.14;67.74
39613;BME280;25303;48.896;13.342;2022-08-25T07:58:05;93087.16;;;21.31;67.38
39613;BME280;25303;48.896;13.342;2022-08-25T08:00:49;93087.19;;;21.43;66.75
39613;BME280;25303;48.896;13.342;2022-08-25T08:03:33;93090.88;;;21.61;66.68
39613;BME280;25303;48.896;13.342;2022-08-25T08:06:32;93088.34;;;21.73;65.48
39613;BME280;25303;48.896;13.342;2022-08-25T08:09:15;93087.63;;;21.84;65.03
39613;BME280;25303;48.896;13.342;2022-08-25T08:11:59;93084.75;;;21.85;63.84
39613;BME280;25303;48.896;13.342;2022-08-25T08:14:44;93083.59;;;21.81;62.11
39613;BME280;25303;48.896;13.342;2022-08-25T08:17:26;93092.78;;;21.72;59.96
39613;BME280;25303;48.896;13.342;2022-08-25T08:20:11;93093.50;;;21.79;61.70
39613;BME280;25303;48.896;13.342;2022-08-25T08:22:54;93086.72;;;21.90;61.56
39613;BME280;25303;48.896;13.342;2022-08-25T08:25:38;93077.84;;;21.91;60.53
39613;BME280;25303;48.896;13.342;2022-08-25T08:28:21;93083.81;;;21.98;60.09
39613;BME280;25303;48.896;13.342;2022-08-25T08:31:10;93080.50;;;22.03;60.05
39613;BME280;25303;48.896;13.342;2022-08-25T08:33:54;93076.34;;;22.14;59.37
39613;BME280;25303;48.896;13.342;2022-08-25T08:36:37;93070.69;;;22.29;58.82
39613;BME280;25303;48.896;13.342;2022-08-25T08:39:21;93068.91;;;22.41;58.33
39613;BME280;25303;48.896;13.342;2022-08-25T08:42:21;93070.66;;;22.48;57.23
39613;BME280;25303;48.896;13.342;2022-08-25T08:45:24;93070.78;;;22.53;56.96
39613;BME280;25303;48.896;13.342;2022-08-25T08:48:37;93065.53;;;22.53;55.71
39613;BME280;25303;48.896;13.342;2022-08-25T08:51:26;93063.25;;;22.56;57.07
39613;BME280;25303;48.896;13.342;2022-08-25T08:54:17;93061.34;;;22.64;57.75
39613;BME280;25303;48.896;13.342;2022-08-25T08:57:09;93060.56;;;22.75;57.86
39613;BME280;25303;48.896;13.342;2022-08-25T08:59:56;93065.94;;;22.80;57.84
39613;BME280;25303;48.896;13.342;2022-08-25T09:02:45;93069.50;;;22.98;57.18
39613;BME280;25303;48.896;13.342;2022-08-25T09:05:43;93070.16;;;23.05;55.87
39613;BME280;25303;48.896;13.342;2022-08-25T09:08:28;93072.38;;;23.32;56.93
39613;BME280;25303;48.896;13.342;2022-08-25T09:11:16;93072.91;;;23.46;56.78
39613;BME280;25303;48.896;13.342;2022-08-25T09:14:15;93062.97;;;23.60;56.33
39613;BME280;25303;48.896;13.342;2022-08-25T09:17:17;93068.66;;;23.69;54.93
39613;BME280;25303;48.896;13.342;2022-08-25T09:20:13;93064.84;;;23.76;55.63
39613;BME280;25303;48.896;13.342;2022-08-25T09:23:14;93069.53;;;23.86;55.32
39613;BME280;25303;48.896;13.342;2022-08-25T09:26:14;93063.88;;;24.06;55.71
39613;BME280;25303;48.896;13.342;2022-08-25T09:29:06;93066.56;;;24.23;54.64
39613;BME280;25303;48.896;13.342;2022-08-25T09:31:59;93061.28;;;24.52;55.11
39613;BME280;25303;48.896;13.342;2022-08-25T09:34:43;93054.41;;;24.68;54.76
39613;BME280;25303;48.896;13.342;2022-08-25T09:37:29;93056.91;;;24.75;54.50
39613;BME280;25303;48.896;13.342;2022-08-25T09:40:14;93048.34;;;24.68;53.01
39613;BME280;25303;48.896;13.342;2022-08-25T09:43:00;93056.16;;;24.46;53.12
39613;BME280;25303;48.896;13.342;2022-08-25T09:45:46;93044.66;;;24.35;53.04
39613;BME280;25303;48.896;13.342;2022-08-25T09:48:32;93050.81;;;24.40;53.43
39613;BME280;25303;48.896;13.342;2022-08-25T09:51:24;93044.63;;;24.98;53.23
39613;BME280;25303;48.896;13.342;2022-08-25T09:54:17;93040.69;;;25.17;51.45
39613;BME280;25303;48.896;13.342;2022-08-25T09:57:07;93045.56;;;25.09;51.94
39613;BME280;25303;48.896;13.342;2022-08-25T09:59:51;93042.63;;;25.05;52.03
39613;BME280;25303;48.896;13.342;2022-08-25T10:02:38;93039.72;;;25.24;51.34
39613;BME280;25303;48.896;13.342;2022-08-25T10:05:25;93030.34;;;25.11;51.18
39613;BME280;25303;48.896;13.342;2022-08-25T10:08:11;93033.56;;;25.35;50.32
39613;BME280;25303;48.896;13.342;2022-08-25T10:11:04;93025.09;;;25.72;50.09
39613;BME280;25303;48.896;13.342;2022-08-25T10:14:00;93021.94;;;26.25;50.12
39613;BME280;25303;48.896;13.342;2022-08-25T10:16:44;93014.88;;;26.91;49.51
39613;BME280;25303;48.896;13.342;2022-08-25T10:19:28;93018.59;;;27.43;47.57
39613;BME280;25303;48.896;13.342;2022-08-25T10:22:21;93023.22;;;27.15;44.00
39613;BME280;25303;48.896;13.342;2022-08-25T10:25:07;93016.78;;;26.68;45.20
39613;BME280;25303;48.896;13.342;2022-08-25T10:28:05;93021.16;;;26.57;48.28
39613;BME280;25303;48.896;13.342;2022-08-25T10:30:58;93016.03;;;26.40;46.00
39613;BME280;25303;48.896;13.342;2022-08-25T10:33:54;93017.53;;;26.31;46.97
39613;BME280;25303;48.896;13.342;2022-08-25T10:36:48;93017.22;;;26.27;47.88
39613;BME280;25303;48.896;13.342;2022-08-25T10:39:40;93011.53;;;26.41;47.98
39613;BME280;25303;48.896;13.342;2022-08-25T10:42:32;93012.22;;;26.58;48.04
39613;BME280;25303;48.896;13.342;2022-08-25T10:45:20;93010.91;;;26.88;47.44
39613;BME280;25303;48.896;13.342;2022-08-25T10:51:37;93005.75;;;27.57;45.24
39613;BME280;25303;48.896;13.342;2022-08-25T10:54:33;93003.44;;;27.71;45.43
39613;BME280;25303;48.896;13.342;2022-08-25T10:57:28;93012.75;;;27.36;45.13
39613;BME280;25303;48.896;13.342;2022-08-25T11:00:17;93015.09;;;27.32;46.65
39613;BME280;25303;48.896;13.342;2022-08-25T11:03:21;93005.50;;;27.64;45.81
39613;BME280;25303;48.896;13.342;2022-08-25T11:06:18;93004.59;;;28.11;46.34
39613;BME280;25303;48.896;13.342;2022-08-25T11:09:08;93006.78;;;28.50;44.30
39613;BME280;25303;48.896;13.342;2022-08-25T11:11:57;93008.06;;;28.22;43.63
39613;BME280;25303;48.896;13.342;2022-08-25T11:14:45;93008.34;;;27.47;45.14
39613;BME280;25303;48.896;13.342;2022-08-25T11:17:38;93005.81;;;27.19;45.35
39613;BME280;25303;48.896;13.342;2022-08-25T11:20:27;93000.47;;;27.14;46.53
39613;BME280;25303;48.896;13.342;2022-08-25T11:23:20;92996.47;;;27.54;46.54
39613;BME280;25303;48.896;13.342;2022-08-25T11:26:09;92987.34;;;27.98;45.39
39613;BME280;25303;48.896;13.342;2022-08-25T11:28:58;92983.47;;;28.47;45.06
39613;BME280;25303;48.896;13.342;2022-08-25T11:31:51;92993.56;;;28.76;41.31
39613;BME280;25303;48.896;13.342;2022-08-25T11:34:36;92986.91;;;28.48;43.50
39613;BME280;25303;48.896;13.342;2022-08-25T11:37:26;92980.81;;;28.58;42.89
39613;BME280;25303;48.896;13.342;2022-08-25T11:40:34;92988.50;;;28.28;41.21
39613;BME280;25303;48.896;13.342;2022-08-25T11:43:30;92977.63;;;28.19;41.62
39613;BME280;25303;48.896;13.342;2022-08-25T11:46:28;92975.78;;;28.30;41.69
39613;BME280;25303;48.896;13.342;2022-08-25T11:49:33;92980.81;;;28.42;41.72
39613;BME280;25303;48.896;13.342;2022-08-25T11:52:44;92982.41;;;28.64;41.52
39613;BME280;25303;48.896;13.342;2022-08-25T11:55:47;92981.88;;;28.62;40.54
39613;BME280;25303;48.896;13.342;2022-08-25T11:58:39;92984.44;;;27.95;41.53
39613;BME280;25303;48.896;13.342;2022-08-25T12:04:46;92987.41;;;27.45;42.71
39613;BME280;25303;48.896;13.342;2022-08-25T12:08:00;92983.06;;;27.23;42.95
39613;BME280;25303;48.896;13.342;2022-08-25T12:11:03;92966.91;;;26.72;44.32
39613;BME280;25303;48.896;13.342;2022-08-25T12:14:07;92970.00;;;26.96;42.80
39613;BME280;25303;48.896;13.342;2022-08-25T12:17:06;92967.41;;;27.06;43.05
39613;BME280;25303;48.896;13.342;2022-08-25T12:19:56;92964.56;;;27.23;42.28
39613;BME280;25303;48.896;13.342;2022-08-25T12:22:53;92968.38;;;27.38;41.38
39613;BME280;25303;48.896;13.342;2022-08-25T12:25:49;92967.16;;;27.61;40.75
39613;BME280;25303;48.896;13.342;2022-08-25T12:28:44;92967.72;;;27.73;40.41
39613;BME280;25303;48.896;13.342;2022-08-25T12:31:49;92960.81;;;27.67;40.92
39613;BME280;25303;48.896;13.342;2022-08-25T12:34:53;92958.72;;;27.74;41.45
39613;BME280;25303;48.896;13.342;2022-08-25T12:37:58;92955.63;;;28.14;40.75
39613;BME280;25303;48.896;13.342;2022-08-25T12:40:53;92954.06;;;28.13;39.30
39613;BME280;25303;48.896;13.342;2022-08-25T12:43:41;92959.69;;;27.48;41.49
39613;BME280;25303;48.896;13.342;2022-08-25T12:46:36;92957.06;;;27.53;41.67
39613;BME280;25303;48.896;13.342;2022-08-25T12:49:30;92953.56;;;27.42;41.62
39613;BME280;25303;48.896;13.342;2022-08-25T12:52:16;92950.56;;;27.97;41.39
39613;BME280;25303;48.896;13.342;2022-08-25T12:55:03;92948.72;;;28.02;40.83
39613;BME280;25303;48.896;13.342;2022-08-25T12:57:50;92942.88;;;27.80;40.89
39613;BME280;25303;48.896;13.342;2022-08-25T13:00:55;92942.63;;;28.07;40.31
39613;BME280;25303;48.896;13.342;2022-08-25T13:03:59;92941.84;;;27.91;40.75
39613;BME280;25303;48.896;13.342;2022-08-25T13:07:08;92938.38;;;27.85;41.28
39613;BME280;25303;48.896;13.342;2022-08-25T13:10:19;92937.81;;;27.73;40.16
39613;BME280;25303;48.896;13.342;2022-08-25T13:13:09;92940.84;;;27.34;40.99
39613;BME280;25303;48.896;13.342;2022-08-25T13:16:01;92938.72;;;26.82;42.16
39613;BME280;25303;48.896;13.342;2022-08-25T13:18:46;92938.81;;;26.60;42.02
39613;BME280;25303;48.896;13.342;2022-08-25T13:21:35;92935.97;;;26.29;42.52
39613;BME280;25303;48.896;13.342;2022-08-25T13:24:24;92947.72;;;26.16;43.83
39613;BME280;25303;48.896;13.342;2022-08-25T13:27:19;92937.56;;;26.30;44.10
39613;BME280;25303;48.896;13.342;2022-08-25T13:30:04;92941.41;;;26.50;43.33
39613;BME280;25303;48.896;13.342;2022-08-25T13:32:48;92937.41;;;26.80;43.86
39613;BME280;25303;48.896;13.342;2022-08-25T13:35:32;92933.63;;;27.19;43.36
39613;BME280;25303;48.896;13.342;2022-08-25T13:38:16;92920.53;;;27.44;43.21
39613;BME280;25303;48.896;13.342;2022-08-25T13:41:03;92924.50;;;26.89;42.03
39613;BME280;25303;48.896;13.342;2022-08-25T13:43:50;92928.81;;;26.62;42.85
39613;BME280;25303;48.896;13.342;2022-08-25T13:46:34;92920.63;;;26.26;43.61
39613;BME280;25303;48.896;13.342;2022-08-25T13:49:25;92922.94;;;25.90;46.05
39613;BME280;25303;48.896;13.342;2022-08-25T13:52:25;92916.31;;;26.15;45.67
39613;BME280;25303;48.896;13.342;2022-08-25T13:55:10;92915.13;;;26.28;44.68
39613;BME280;25303;48.896;13.342;2022-08-25T13:57:55;92911.22;;;26.08;44.46
39613;BME280;25303;48.896;13.342;2022-08-25T14:00:43;92911.88;;;26.20;44.88
39613;BME280;25303;48.896;13.342;2022-08-25T14:03:30;92907.16;;;26.60;44.71
39613;BME280;25303;48.896;13.342;2022-08-25T14:06:20;92899.47;;;26.96;43.27
39613;BME280;25303;48.896;13.342;2022-08-25T14:09:11;92901.69;;;27.20;42.59
39613;BME280;25303;48.896;13.342;2022-08-25T14:11:57;92890.19;;;27.52;43.15
39613;BME280;25303;48.896;13.342;2022-08-25T14:14:41;92883.88;;;27.69;42.66
39613;BME280;25303;48.896;13.342;2022-08-25T14:17:24;92880.44;;;27.84;42.06
39613;BME280;25303;48.896;13.342;2022-08-25T14:20:23;92875.16;;;27.94;41.81
39613;BME280;25303;48.896;13.342;2022-08-25T14:23:12;92884.69;;;28.05;42.14
39613;BME280;25303;48.896;13.342;2022-08-25T14:25:59;92878.66;;;28.20;41.64
39613;BME280;25303;48.896;13.342;2022-08-25T14:28:43;92877.56;;;28.32;41.82
39613;BME280;25303;48.896;13.342;2022-08-25T14:31:30;92882.88;;;28.27;41.59
39613;BME280;25303;48.896;13.342;2022-08-25T14:34:17;92878.06;;;28.08;41.63
39613;BME280;25303;48.896;13.342;2022-08-25T14:37:02;92881.50;;;27.72;41.88
39613;BME280;25303;48.896;13.342;2022-08-25T14:39:49;92888.25;;;27.37;42.10
39613;BME280;25303;48.896;13.342;2022-08-25T14:42:34;92879.88;;;26.92;42.00